createdAt,value
2019-02-21T00:01:18.918Z,7.80
2019-02-21T00:03:51.495Z,9.80
2019-02-21T00:06:23.840Z,8.40
2019-02-21T00:08:56.482Z,7.40
2019-02-21T00:11:29.353Z,7.20
2019-02-21T00:14:01.759Z,7.80
2019-02-21T00:16:34.331Z,7.40
2019-02-21T00:19:06.898Z,8.60
2019-02-21T00:21:39.273Z,7.60
2019-02-21T00:24:11.790Z,8.40
2019-02-21T00:26:44.379Z,5.40
2019-02-21T00:29:16.821Z,6.60
2019-02-21T00:31:49.376Z,9.20
2019-02-21T00:34:21.859Z,6.60
2019-02-21T00:36:54.335Z,7.00
2019-02-21T00:39:26.906Z,7.60
2019-02-21T00:41:59.375Z,6.00
2019-02-21T00:44:33.229Z,4.20
2019-02-21T00:47:05.624Z,7.20
2019-02-21T00:49:38.173Z,6.80
2019-02-21T00:52:10.564Z,6.40
2019-02-21T00:54:42.951Z,7.60
2019-02-21T00:57:15.635Z,6.00
2019-02-21T00:59:48.028Z,5.40
2019-02-21T01:02:20.845Z,5.60
2019-02-21T01:04:53.365Z,6.00
2019-02-21T01:07:25.749Z,5.00
2019-02-21T01:09:58.403Z,5.20
2019-02-21T01:12:30.874Z,5.00
2019-02-21T01:15:03.670Z,5.80
2019-02-21T01:17:36.706Z,5.00
2019-02-21T01:20:09.422Z,5.80
2019-02-21T01:22:42.060Z,6.80
2019-02-21T01:25:14.612Z,6.00
2019-02-21T01:27:49.783Z,3.00
2019-02-21T01:30:24.111Z,5.00
2019-02-21T01:32:59.393Z,5.00
2019-02-21T01:35:31.914Z,2.40
2019-02-21T01:38:08.749Z,5.00
2019-02-21T01:40:41.669Z,5.00
2019-02-21T01:43:16.711Z,4.80
2019-02-21T01:45:49.243Z,5.00
2019-02-21T01:48:21.704Z,4.20
2019-02-21T01:50:56.205Z,4.00
2019-02-21T01:53:29.292Z,6.20
2019-02-21T01:56:01.832Z,4.40
2019-02-21T01:58:39.275Z,4.00
2019-02-21T02:01:15.049Z,3.20
2019-02-21T02:03:47.148Z,2.00
2019-02-21T02:06:19.896Z,4.00
2019-02-21T02:08:52.617Z,4.80
2019-02-21T02:11:25.229Z,3.80
2019-02-21T02:13:57.693Z,3.20
2019-02-21T02:16:30.098Z,4.40
2019-02-21T02:19:02.489Z,5.60
2019-02-21T02:21:35.663Z,4.00
2019-02-21T02:24:08.350Z,2.80
2019-02-21T02:26:40.872Z,4.20
2019-02-21T02:29:13.301Z,3.00
2019-02-21T02:31:45.825Z,2.40
2019-02-21T02:34:18.784Z,3.00
2019-02-21T02:36:51.166Z,3.00
2019-02-21T02:39:24.288Z,2.00
2019-02-21T02:41:56.868Z,3.00
2019-02-21T02:44:29.876Z,3.20
2019-02-21T02:47:02.835Z,3.00
2019-02-21T02:49:35.203Z,2.00
2019-02-21T02:52:07.651Z,3.00
2019-02-21T02:54:40.041Z,6.20
2019-02-21T02:57:12.456Z,8.00
2019-02-21T02:59:44.687Z,11.00
2019-02-21T03:02:16.983Z,14.60
2019-02-21T03:04:49.288Z,12.60
2019-02-21T03:07:21.569Z,22.40
2019-02-21T03:09:53.775Z,23.00
2019-02-21T03:12:26.154Z,27.80
2019-02-21T03:14:58.346Z,24.00
2019-02-21T03:17:31.002Z,28.00
2019-02-21T03:20:03.205Z,30.20
2019-02-21T03:22:35.545Z,30.00
2019-02-21T03:25:09.156Z,25.60
2019-02-21T03:27:41.392Z,27.80
2019-02-21T03:30:13.765Z,25.60
2019-02-21T03:32:46.270Z,27.80
2019-02-21T03:35:19.058Z,25.80
2019-02-21T03:37:51.480Z,27.00
2019-02-21T03:40:24.064Z,24.20
2019-02-21T03:42:56.685Z,29.60
2019-02-21T03:45:28.869Z,23.80
2019-02-21T03:48:01.418Z,21.80
2019-02-21T03:50:33.710Z,26.60
2019-02-21T03:53:06.057Z,21.00
2019-02-21T03:55:38.727Z,22.60
2019-02-21T03:58:11.413Z,24.00
2019-02-21T04:00:44.066Z,42.80
2019-02-21T04:03:16.564Z,58.00
2019-02-21T04:05:49.122Z,66.25
2019-02-21T04:08:21.615Z,75.50
2019-02-21T04:10:54.174Z,97.75
2019-02-21T04:13:26.581Z,118.75
2019-02-21T04:15:58.874Z,122.75
2019-02-21T04:18:31.080Z,131.75
2019-02-21T04:21:04.604Z,127.25
2019-02-21T04:23:36.862Z,124.25
2019-02-21T04:26:09.326Z,107.25
2019-02-21T04:28:41.575Z,97.50
2019-02-21T04:31:13.850Z,87.25
2019-02-21T04:33:46.147Z,84.00
2019-02-21T04:36:18.652Z,75.00
2019-02-21T04:38:50.955Z,71.00
2019-02-21T04:41:23.557Z,66.00
2019-02-21T04:43:56.099Z,61.00
2019-02-21T04:46:28.372Z,61.75
2019-02-21T04:49:00.551Z,57.75
2019-02-21T04:51:32.747Z,55.25
2019-02-21T04:54:05.069Z,54.00
2019-02-21T04:56:37.394Z,53.00
2019-02-21T04:59:09.627Z,49.00
2019-02-21T05:01:41.862Z,41.60
2019-02-21T05:04:14.184Z,45.20
2019-02-21T05:06:46.803Z,48.00
2019-02-21T05:09:19.127Z,44.80
2019-02-21T05:11:51.323Z,49.00
2019-02-21T05:14:23.872Z,46.00
2019-02-21T05:16:56.589Z,48.40
2019-02-21T05:19:28.844Z,45.80
2019-02-21T05:22:01.084Z,46.80
2019-02-21T05:24:33.328Z,47.20
2019-02-21T05:27:07.119Z,40.60
2019-02-21T05:29:39.348Z,44.40
2019-02-21T05:32:16.839Z,36.60
2019-02-21T05:35:02.243Z,44.40
2019-02-21T05:37:41.917Z,42.40
2019-02-21T05:40:15.629Z,39.20
2019-02-21T05:42:58.473Z,39.60
2019-02-21T05:45:32.297Z,33.80
2019-02-21T05:48:15.130Z,35.00
2019-02-21T05:50:57.326Z,33.00
2019-02-21T05:53:31.085Z,39.00
2019-02-21T05:56:07.946Z,30.40
2019-02-21T05:58:51.445Z,36.20
2019-02-21T06:01:28.207Z,34.60
2019-02-21T06:04:10.880Z,36.00
2019-02-21T06:06:59.649Z,37.00
2019-02-21T06:09:33.245Z,36.40
2019-02-21T06:12:12.737Z,34.00
2019-02-21T06:14:49.098Z,29.20
2019-02-21T06:17:38.838Z,33.20
2019-02-21T06:20:12.627Z,30.20
2019-02-21T06:22:46.341Z,33.00
2019-02-21T06:25:19.900Z,29.60
2019-02-21T06:27:53.487Z,28.60
2019-02-21T06:30:43.402Z,29.40
2019-02-21T06:33:15.863Z,28.60
2019-02-21T06:35:48.183Z,24.40
2019-02-21T06:38:21.000Z,28.80
2019-02-21T06:40:53.341Z,28.00
2019-02-21T06:43:26.050Z,28.00
2019-02-21T06:45:58.284Z,25.20
2019-02-21T06:48:30.810Z,27.60
2019-02-21T06:51:03.095Z,25.40
2019-02-21T06:53:35.368Z,28.40
2019-02-21T06:56:08.178Z,25.00
2019-02-21T06:58:42.148Z,24.40
2019-02-21T07:01:25.392Z,22.80
2019-02-21T07:03:49.063Z,20.20
2019-02-21T07:06:31.424Z,25.40
2019-02-21T07:08:55.689Z,23.00
2019-02-21T07:11:27.907Z,23.00
2019-02-21T07:14:00.235Z,19.80
2019-02-21T07:16:32.444Z,23.20
2019-02-21T07:19:05.938Z,21.60
2019-02-21T07:21:38.234Z,20.40
2019-02-21T07:24:10.449Z,15.40
2019-02-21T07:26:42.914Z,15.00
2019-02-21T07:29:15.178Z,16.20
2019-02-21T07:31:49.273Z,13.00
2019-02-21T07:34:21.183Z,11.20
2019-02-21T07:36:53.380Z,12.00
2019-02-21T07:39:35.725Z,10.80
2019-02-21T07:41:59.679Z,12.60
2019-02-21T07:44:32.269Z,9.60
2019-02-21T07:47:04.789Z,11.20
2019-02-21T07:49:37.160Z,12.20
2019-02-21T07:52:09.367Z,12.40
2019-02-21T07:54:41.628Z,11.20
2019-02-21T07:57:13.832Z,10.40
2019-02-21T07:59:46.120Z,13.20
2019-02-21T08:02:20.868Z,11.20
2019-02-21T08:04:52.078Z,10.00
2019-02-21T08:07:26.394Z,9.40
2019-02-21T08:09:58.800Z,10.20
2019-02-21T08:12:31.153Z,9.80
2019-02-21T08:15:04.113Z,5.60
2019-02-21T08:17:36.504Z,6.60
2019-02-21T08:20:11.379Z,6.80
2019-02-21T08:22:44.307Z,7.00
2019-02-21T08:25:19.129Z,7.20
2019-02-21T08:27:50.616Z,6.20
2019-02-21T08:30:23.004Z,5.80
2019-02-21T08:33:02.362Z,7.40
2019-02-21T08:35:34.881Z,7.00
2019-02-21T08:38:07.362Z,5.60
2019-02-21T08:40:39.925Z,8.20
2019-02-21T08:43:12.507Z,5.80
2019-02-21T08:45:45.077Z,4.20
2019-02-21T08:48:17.617Z,6.00
2019-02-21T08:50:50.218Z,5.00
2019-02-21T08:53:22.759Z,4.80
2019-02-21T08:55:56.033Z,4.20
2019-02-21T08:58:28.517Z,6.80
2019-02-21T09:01:01.025Z,4.80
2019-02-21T09:03:33.528Z,4.20
2019-02-21T09:06:06.118Z,3.00
2019-02-21T09:08:38.480Z,3.00
2019-02-21T09:11:11.080Z,3.00
2019-02-21T09:13:43.449Z,0.80
2019-02-21T09:16:17.686Z,2.40
2019-02-21T09:18:49.945Z,3.00
2019-02-21T09:21:22.602Z,2.00
2019-02-21T09:23:56.708Z,3.00
2019-02-21T09:26:28.772Z,1.20
2019-02-21T09:29:01.251Z,2.00
2019-02-21T09:31:34.104Z,1.80
2019-02-21T09:34:06.471Z,2.00
2019-02-21T09:36:38.921Z,3.00
2019-02-21T09:39:11.384Z,2.00
2019-02-21T09:41:44.485Z,3.00
2019-02-21T09:44:18.201Z,1.40
2019-02-21T09:46:51.122Z,2.00
2019-02-21T09:49:23.526Z,2.00
2019-02-21T09:51:56.159Z,1.00
2019-02-21T09:54:28.544Z,1.00
2019-02-21T09:57:12.488Z,2.00
2019-02-21T09:59:34.862Z,2.40
2019-02-21T10:02:07.601Z,1.00
2019-02-21T10:04:39.958Z,0.80
2019-02-21T10:07:12.757Z,2.00
2019-02-21T10:09:45.102Z,0.60
2019-02-21T10:12:17.880Z,1.20
2019-02-21T10:14:50.262Z,1.40
2019-02-21T10:17:22.740Z,1.00
2019-02-21T10:19:55.081Z,1.00
2019-02-21T10:22:27.723Z,1.00
2019-02-21T10:25:00.312Z,0.00
2019-02-21T10:27:33.006Z,3.40
2019-02-21T10:30:06.185Z,0.60
2019-02-21T10:32:39.265Z,1.20
2019-02-21T10:35:12.066Z,1.00
2019-02-21T10:37:44.570Z,1.00
2019-02-21T10:40:19.905Z,0.40
2019-02-21T10:42:52.555Z,1.00
2019-02-21T10:45:25.252Z,0.60
2019-02-21T10:47:57.822Z,0.80
2019-02-21T10:50:30.302Z,0.80
2019-02-21T10:53:02.869Z,0.00
2019-02-21T10:55:35.234Z,0.60
2019-02-21T10:58:07.832Z,0.00
2019-02-21T11:00:40.281Z,0.20
2019-02-21T11:03:12.757Z,0.00
2019-02-21T11:05:45.193Z,0.00
2019-02-21T11:08:17.665Z,0.00
2019-02-21T11:10:50.120Z,0.00
2019-02-21T11:13:22.485Z,0.80
2019-02-21T11:15:55.137Z,0.00
2019-02-21T11:18:27.508Z,0.00
2019-02-21T11:20:59.868Z,0.00
2019-02-21T11:23:32.453Z,0.00
2019-02-21T11:26:04.873Z,0.00
2019-02-21T11:28:37.347Z,0.00
2019-02-21T11:31:11.132Z,0.00
2019-02-21T11:33:43.511Z,2.00
2019-02-21T11:36:16.167Z,0.00
2019-02-21T11:38:48.538Z,0.00
2019-02-21T11:41:21.104Z,0.00
2019-02-21T11:43:53.851Z,0.00
2019-02-21T11:46:26.318Z,0.00
2019-02-21T11:48:58.907Z,0.00
2019-02-21T11:51:31.275Z,0.00
2019-02-21T11:54:04.255Z,0.00
2019-02-21T11:56:36.629Z,0.00
2019-02-21T11:59:09.006Z,0.00
2019-02-21T12:01:41.761Z,0.00
2019-02-21T12:04:14.126Z,0.00
2019-02-21T12:06:47.777Z,0.00
2019-02-21T12:09:20.402Z,0.00
2019-02-21T12:11:52.768Z,0.00
2019-02-21T12:14:25.458Z,0.00
2019-02-21T12:16:57.832Z,0.00
2019-02-21T12:19:30.338Z,0.00
2019-02-21T12:22:02.791Z,0.00
2019-02-21T12:24:35.432Z,0.00
2019-02-21T12:27:07.770Z,0.00
2019-02-21T12:29:40.157Z,0.00
2019-02-21T12:32:12.529Z,0.00
2019-02-21T12:34:44.943Z,0.00
2019-02-21T12:37:17.476Z,0.00
2019-02-21T12:39:50.206Z,0.00
2019-02-21T12:42:23.587Z,0.00
2019-02-21T12:44:56.386Z,0.00
2019-02-21T12:47:29.239Z,0.00
2019-02-21T12:50:02.293Z,0.00
2019-02-21T12:52:35.381Z,0.40
2019-02-21T12:55:09.860Z,0.00
2019-02-21T12:57:42.323Z,0.00
2019-02-21T13:00:16.960Z,0.00
2019-02-21T13:02:49.420Z,0.00
2019-02-21T13:05:21.904Z,0.00
2019-02-21T13:07:54.252Z,0.00
2019-02-21T13:10:27.154Z,0.00
2019-02-21T13:12:59.494Z,0.00
2019-02-21T13:15:32.275Z,0.00
2019-02-21T13:18:15.006Z,0.00
2019-02-21T13:20:38.484Z,0.00
2019-02-21T13:23:10.862Z,0.00
2019-02-21T13:25:43.770Z,0.00
2019-02-21T13:28:17.234Z,0.00
2019-02-21T13:30:49.632Z,0.00
2019-02-21T13:33:22.068Z,0.00
2019-02-21T13:35:54.489Z,0.00
2019-02-21T13:38:26.855Z,0.00
2019-02-21T13:40:59.238Z,0.00
2019-02-21T13:43:31.596Z,0.00
2019-02-21T13:46:04.250Z,0.00
2019-02-21T13:48:36.708Z,0.00
2019-02-21T13:51:09.391Z,0.00
2019-02-21T13:53:41.770Z,0.00
2019-02-21T13:56:14.294Z,0.00
2019-02-21T13:58:47.087Z,0.00
2019-02-21T14:01:19.446Z,0.00
2019-02-21T14:03:52.037Z,0.00
2019-02-21T14:06:24.606Z,0.00
2019-02-21T14:08:57.213Z,0.00
2019-02-21T14:11:30.782Z,0.00
2019-02-21T14:14:03.342Z,0.00
2019-02-21T14:16:46.160Z,0.00
2019-02-21T14:19:09.539Z,0.00
2019-02-21T14:21:43.756Z,0.00
2019-02-21T14:24:16.611Z,0.00
2019-02-21T14:26:49.459Z,0.00
2019-02-21T14:29:21.848Z,0.00
2019-02-21T14:31:54.380Z,0.00
2019-02-21T14:34:26.735Z,0.00
2019-02-21T14:37:01.135Z,0.00
2019-02-21T14:39:33.898Z,0.00
2019-02-21T14:42:06.366Z,0.00
2019-02-21T14:44:38.738Z,0.00
2019-02-21T14:47:11.314Z,0.00
2019-02-21T14:49:43.656Z,0.00
2019-02-21T14:52:16.220Z,0.00
2019-02-21T14:54:48.552Z,0.00
2019-02-21T14:57:21.115Z,0.00
2019-02-21T14:59:53.458Z,0.00
2019-02-21T15:02:25.833Z,0.00
2019-02-21T15:04:58.180Z,0.00
2019-02-21T15:07:30.546Z,0.00
2019-02-21T15:10:02.862Z,0.00
2019-02-21T15:12:35.675Z,0.00
2019-02-21T15:15:10.938Z,0.00
2019-02-21T15:17:43.307Z,0.00
2019-02-21T15:20:17.116Z,0.00
2019-02-21T15:22:49.574Z,0.00
2019-02-21T15:25:22.388Z,0.00
2019-02-21T15:27:55.090Z,0.00
2019-02-21T15:30:28.217Z,0.00
2019-02-21T15:33:00.798Z,0.00
2019-02-21T15:35:33.248Z,0.00
2019-02-21T15:38:05.716Z,0.00
2019-02-21T15:40:38.461Z,0.00
2019-02-21T15:43:10.895Z,0.00
2019-02-21T15:45:43.329Z,0.00
2019-02-21T15:48:15.866Z,0.00
2019-02-21T15:50:48.223Z,0.00
2019-02-21T15:53:20.974Z,21.40
2019-02-21T15:55:53.163Z,25.60
2019-02-21T15:58:25.521Z,21.80
2019-02-21T16:00:58.104Z,24.20
2019-02-21T16:03:30.688Z,21.40
2019-02-21T16:06:02.844Z,26.40
2019-02-21T16:08:35.153Z,21.20
2019-02-21T16:11:07.346Z,22.60
2019-02-21T16:13:40.508Z,26.40
2019-02-21T16:16:13.217Z,27.00
2019-02-21T16:18:45.420Z,31.60
2019-02-21T16:21:18.084Z,29.60
2019-02-21T16:23:50.422Z,26.20
2019-02-21T16:26:23.218Z,36.00
2019-02-21T16:28:55.728Z,34.20
2019-02-21T16:31:27.894Z,42.20
2019-02-21T16:34:00.085Z,45.40
2019-02-21T16:36:32.262Z,43.80
2019-02-21T16:39:06.105Z,49.00
2019-02-21T16:41:38.985Z,53.00
2019-02-21T16:44:11.163Z,51.75
2019-02-21T16:46:43.338Z,51.50
2019-02-21T16:49:15.871Z,51.25
2019-02-21T16:51:48.042Z,52.00
2019-02-21T16:54:20.541Z,53.75
2019-02-21T16:56:52.745Z,49.25
2019-02-21T16:59:25.158Z,42.80
2019-02-21T17:01:58.327Z,29.00
2019-02-21T17:04:30.520Z,29.40
2019-02-21T17:07:13.041Z,28.00
2019-02-21T17:09:36.567Z,27.40
2019-02-21T17:12:08.987Z,26.80
2019-02-21T17:14:41.213Z,29.20
2019-02-21T17:17:13.399Z,27.20
2019-02-21T17:19:45.593Z,27.40
2019-02-21T17:22:18.195Z,25.00
2019-02-21T17:24:53.015Z,24.00
2019-02-21T17:27:24.274Z,27.80
2019-02-21T17:29:59.148Z,26.80
2019-02-21T17:32:30.428Z,22.60
2019-02-21T17:35:02.665Z,26.80
2019-02-21T17:37:36.146Z,26.80
2019-02-21T17:40:10.853Z,26.20
2019-02-21T17:42:43.058Z,26.20
2019-02-21T17:45:16.254Z,24.80
2019-02-21T17:47:48.448Z,24.00
2019-02-21T17:50:21.317Z,24.20
2019-02-21T17:52:53.607Z,24.60
2019-02-21T17:55:26.127Z,26.60
2019-02-21T17:57:58.389Z,21.40
2019-02-21T18:00:32.240Z,26.80
2019-02-21T18:03:04.400Z,23.80
2019-02-21T18:05:36.686Z,17.00
2019-02-21T18:08:09.097Z,21.20
2019-02-21T18:10:41.279Z,19.80
2019-02-21T18:13:13.459Z,22.00
2019-02-21T18:15:46.644Z,20.40
2019-02-21T18:18:18.917Z,20.00
2019-02-21T18:20:51.105Z,18.40
2019-02-21T18:23:23.239Z,20.00
2019-02-21T18:26:04.227Z,21.80
2019-02-21T18:28:36.771Z,16.40
2019-02-21T18:31:25.821Z,14.20
2019-02-21T18:33:57.995Z,17.00
2019-02-21T18:36:30.241Z,19.40
2019-02-21T18:39:03.425Z,17.40
2019-02-21T18:41:37.141Z,16.40
2019-02-21T18:44:09.457Z,15.60
2019-02-21T18:46:41.701Z,20.00
2019-02-21T18:49:13.919Z,16.80
2019-02-21T18:51:46.125Z,13.80
2019-02-21T18:54:18.310Z,16.00
2019-02-21T18:56:50.877Z,14.40
2019-02-21T18:59:31.401Z,13.00
2019-02-21T19:01:58.182Z,18.00
2019-02-21T19:04:30.335Z,10.20
2019-02-21T19:07:02.521Z,13.80
2019-02-21T19:09:34.677Z,10.80
2019-02-21T19:12:07.208Z,14.20
2019-02-21T19:14:39.502Z,14.00
2019-02-21T19:17:11.669Z,12.00
2019-02-21T19:19:43.831Z,14.60
2019-02-21T19:22:17.043Z,15.20
2019-02-21T19:24:49.204Z,13.80
2019-02-21T19:27:21.684Z,12.60
2019-02-21T19:29:53.836Z,11.00
2019-02-21T19:32:26.596Z,11.00
2019-02-21T19:34:59.259Z,10.40
2019-02-21T19:37:31.451Z,11.00
2019-02-21T19:40:03.809Z,9.80
2019-02-21T19:42:36.395Z,10.20
2019-02-21T19:45:10.058Z,9.80
2019-02-21T19:47:42.331Z,10.60
2019-02-21T19:50:14.946Z,10.60
2019-02-21T19:52:47.252Z,10.60
2019-02-21T19:55:19.815Z,9.40
2019-02-21T19:57:52.530Z,8.20
2019-02-21T20:00:30.422Z,6.60
2019-02-21T20:03:03.640Z,8.20
2019-02-21T20:05:36.331Z,8.20
2019-02-21T20:08:09.169Z,8.80
2019-02-21T20:10:41.862Z,8.00
2019-02-21T20:13:14.627Z,7.80
2019-02-21T20:15:47.127Z,10.20
2019-02-21T20:18:19.491Z,8.00
2019-02-21T20:20:51.845Z,8.00
2019-02-21T20:23:24.216Z,9.00
2019-02-21T20:25:56.573Z,7.00
2019-02-21T20:28:29.240Z,8.40
2019-02-21T20:31:01.570Z,7.40
2019-02-21T20:33:34.477Z,7.40
2019-02-21T20:36:06.922Z,5.60
2019-02-21T20:38:39.398Z,6.60
2019-02-21T20:41:12.396Z,7.00
2019-02-21T20:43:44.841Z,8.20
2019-02-21T20:46:17.165Z,6.00
2019-02-21T20:48:49.657Z,5.60
2019-02-21T20:51:22.121Z,5.40
2019-02-21T20:53:54.872Z,6.40
2019-02-21T20:56:27.665Z,6.40
2019-02-21T20:59:00.566Z,5.00
2019-02-21T21:01:33.132Z,6.00
2019-02-21T21:04:05.807Z,6.00
2019-02-21T21:06:38.250Z,5.40
2019-02-21T21:09:11.023Z,6.00
2019-02-21T21:11:43.524Z,3.40
2019-02-21T21:14:16.045Z,5.60
2019-02-21T21:16:48.356Z,6.00
2019-02-21T21:19:21.117Z,4.60
2019-02-21T21:21:53.710Z,5.60
2019-02-21T21:24:26.162Z,5.00
2019-02-21T21:26:58.536Z,4.00
2019-02-21T21:29:31.102Z,4.00
2019-02-21T21:32:03.522Z,4.00
2019-02-21T21:34:36.553Z,3.00
2019-02-21T21:37:09.011Z,2.00
2019-02-21T21:39:41.408Z,4.00
2019-02-21T21:42:13.830Z,3.20
2019-02-21T21:44:46.186Z,4.20
2019-02-21T21:47:18.602Z,3.20
2019-02-21T21:49:51.021Z,3.60
2019-02-21T21:52:23.363Z,4.00
2019-02-21T21:54:55.764Z,4.00
2019-02-21T21:57:28.162Z,4.20
2019-02-21T22:00:00.896Z,3.60
2019-02-21T22:02:34.692Z,3.00
2019-02-21T22:05:09.486Z,2.80
2019-02-21T22:07:41.818Z,4.20
2019-02-21T22:10:17.486Z,3.00
2019-02-21T22:12:49.815Z,4.80
2019-02-21T22:15:23.275Z,2.20
2019-02-21T22:17:56.071Z,3.40
2019-02-21T22:20:28.443Z,2.00
2019-02-21T22:23:02.169Z,2.20
2019-02-21T22:25:37.194Z,2.00
2019-02-21T22:28:08.994Z,2.00
2019-02-21T22:30:41.650Z,2.60
2019-02-21T22:33:15.316Z,3.60
2019-02-21T22:35:47.865Z,2.80
2019-02-21T22:38:20.606Z,2.00
2019-02-21T22:40:52.973Z,0.80
2019-02-21T22:43:25.298Z,2.00
2019-02-21T22:45:57.675Z,2.20
2019-02-21T22:48:30.245Z,2.00
2019-02-21T22:51:02.851Z,2.20
2019-02-21T22:53:35.187Z,1.00
2019-02-21T22:56:07.799Z,2.00
2019-02-21T22:58:45.056Z,1.00
2019-02-21T23:01:26.549Z,2.40
2019-02-21T23:04:02.748Z,3.80
2019-02-21T23:06:43.843Z,1.00
2019-02-21T23:09:27.719Z,1.60
2019-02-21T23:11:57.565Z,1.00
2019-02-21T23:14:30.252Z,1.80
2019-02-21T23:17:02.609Z,1.00
2019-02-21T23:19:35.407Z,1.00
2019-02-21T23:22:08.250Z,1.00
2019-02-21T23:24:40.821Z,1.00
2019-02-21T23:27:13.568Z,1.00
2019-02-21T23:29:45.934Z,1.40
2019-02-21T23:32:18.717Z,1.40
2019-02-21T23:34:52.572Z,1.00
2019-02-21T23:37:25.208Z,1.00
2019-02-21T23:39:57.646Z,2.00
2019-02-21T23:42:30.044Z,0.20
2019-02-21T23:45:02.374Z,1.00
2019-02-21T23:47:35.870Z,0.00
2019-02-21T23:50:08.310Z,0.80
2019-02-21T23:52:40.702Z,0.20
2019-02-21T23:55:13.075Z,1.00
2019-02-21T23:57:45.427Z,1.00
